sensor_id;sensor_type;location;lat;lon;timestamp;pressure;altitude;pressure_sealevel;temperature;humidity
19108;BME280;9686;48.832;9.126;2022-07-01T00:01:39;98236.38;;;17.04;nan
19108;BME280;9686;48.832;9.126;2022-07-01T00:04:07;98257.47;;;17.04;nan
19108;BME280;9686;48.832;9.126;2022-07-01T00:06:33;98259.34;;;17.01;nan
19108;BME280;9686;48.832;9.126;2022-07-01T00:08:59;98264.53;;;17.02;nan
19108;BME280;9686;48.832;9.126;2022-07-01T00:11:24;98261.97;;;17.01;nan
19108;BME280;9686;48.832;9.126;2022-07-01T00:13:50;98256.03;;;16.94;nan
19108;BME280;9686;48.832;9.126;2022-07-01T00:16:15;98251.63;;;16.94;nan
19108;BME280;9686;48.832;9.126;2022-07-01T00:18:40;98255.34;;;16.87;nan
19108;BME280;9686;48.832;9.126;2022-07-01T00:21:06;98262.66;;;16.78;nan
19108;BME280;9686;48.832;9.126;2022-07-01T00:23:31;98253.91;;;16.77;nan
19108;BME280;9686;48.832;9.126;2022-07-01T00:25:57;98262.56;;;16.81;nan
19108;BME280;9686;48.832;9.126;2022-07-01T00:28:22;98271.28;;;16.83;nan
19108;BME280;9686;48.832;9.126;2022-07-01T00:30:48;98271.09;;;16.89;nan
19108;BME280;9686;48.832;9.126;2022-07-01T00:33:13;98278.38;;;16.81;nan
19108;BME280;9686;48.832;9.126;2022-07-01T00:35:38;98280.09;;;16.82;nan
19108;BME280;9686;48.832;9.126;2022-07-01T00:38:04;98275.72;;;16.81;nan
19108;BME280;9686;48.832;9.126;2022-07-01T00:40:30;98274.00;;;16.80;nan
19108;BME280;9686;48.832;9.126;2022-07-01T00:42:55;98279.69;;;16.64;nan
19108;BME280;9686;48.832;9.126;2022-07-01T00:45:21;98270.06;;;16.63;nan
19108;BME280;9686;48.832;9.126;2022-07-01T00:47:46;98269.16;;;16.66;nan
19108;BME280;9686;48.832;9.126;2022-07-01T00:50:15;98256.19;;;16.58;nan
19108;BME280;9686;48.832;9.126;2022-07-01T00:52:41;98249.25;;;16.56;nan
19108;BME280;9686;48.832;9.126;2022-07-01T00:55:09;98256.22;;;16.57;nan
19108;BME280;9686;48.832;9.126;2022-07-01T00:57:37;98257.19;;;16.54;nan
19108;BME280;9686;48.832;9.126;2022-07-01T01:00:07;98251.97;;;16.53;nan
19108;BME280;9686;48.832;9.126;2022-07-01T01:02:33;98252.19;;;16.45;nan
19108;BME280;9686;48.832;9.126;2022-07-01T01:04:59;98256.50;;;16.48;nan
19108;BME280;9686;48.832;9.126;2022-07-01T01:07:25;98247.69;;;16.49;nan
19108;BME280;9686;48.832;9.126;2022-07-01T01:09:50;98250.28;;;16.50;nan
19108;BME280;9686;48.832;9.126;2022-07-01T01:12:16;98250.25;;;16.52;nan
19108;BME280;9686;48.832;9.126;2022-07-01T01:14:52;98240.47;;;16.55;nan
19108;BME280;9686;48.832;9.126;2022-07-01T01:17:18;98242.38;;;16.50;nan
19108;BME280;9686;48.832;9.126;2022-07-01T01:19:45;98236.94;;;16.56;nan
19108;BME280;9686;48.832;9.126;2022-07-01T01:22:11;98242.25;;;16.55;nan
19108;BME280;9686;48.832;9.126;2022-07-01T01:24:39;98235.31;;;16.52;nan
19108;BME280;9686;48.832;9.126;2022-07-01T01:27:05;98236.13;;;16.54;nan
19108;BME280;9686;48.832;9.126;2022-07-01T01:29:31;98237.94;;;16.52;nan
19108;BME280;9686;48.832;9.126;2022-07-01T01:31:56;98234.22;;;16.59;nan
19108;BME280;9686;48.832;9.126;2022-07-01T01:34:22;98226.28;;;16.61;nan
19108;BME280;9686;48.832;9.126;2022-07-01T01:36:47;98222.97;;;16.54;nan
19108;BME280;9686;48.832;9.126;2022-07-01T01:39:12;98220.34;;;16.54;nan
19108;BME280;9686;48.832;9.126;2022-07-01T01:41:40;98220.44;;;16.51;nan
19108;BME280;9686;48.832;9.126;2022-07-01T01:44:06;98223.25;;;16.45;nan
19108;BME280;9686;48.832;9.126;2022-07-01T01:46:31;98215.31;;;16.47;nan
19108;BME280;9686;48.832;9.126;2022-07-01T01:48:57;98213.50;;;16.49;nan
19108;BME280;9686;48.832;9.126;2022-07-01T01:51:23;98211.47;;;16.57;nan
19108;BME280;9686;48.832;9.126;2022-07-01T01:53:48;98204.44;;;16.57;nan
19108;BME280;9686;48.832;9.126;2022-07-01T01:56:13;98196.47;;;16.60;nan
19108;BME280;9686;48.832;9.126;2022-07-01T01:58:39;98192.84;;;16.66;nan
19108;BME280;9686;48.832;9.126;2022-07-01T02:01:09;98185.94;;;16.60;nan
19108;BME280;9686;48.832;9.126;2022-07-01T02:03:36;98167.50;;;16.60;nan
19108;BME280;9686;48.832;9.126;2022-07-01T02:06:02;98161.38;;;16.60;nan
19108;BME280;9686;48.832;9.126;2022-07-01T02:08:28;98155.31;;;16.58;nan
19108;BME280;9686;48.832;9.126;2022-07-01T02:10:53;98145.03;;;16.50;nan
19108;BME280;9686;48.832;9.126;2022-07-01T02:13:18;98139.09;;;16.44;nan
19108;BME280;9686;48.832;9.126;2022-07-01T02:15:44;98149.72;;;16.39;nan
19108;BME280;9686;48.832;9.126;2022-07-01T02:18:09;98142.53;;;16.46;nan
19108;BME280;9686;48.832;9.126;2022-07-01T02:20:34;98133.88;;;16.42;nan
19108;BME280;9686;48.832;9.126;2022-07-01T02:22:59;98132.38;;;16.33;nan
19108;BME280;9686;48.832;9.126;2022-07-01T02:25:25;98136.78;;;16.33;nan
19108;BME280;9686;48.832;9.126;2022-07-01T02:27:51;98141.88;;;16.38;nan
19108;BME280;9686;48.832;9.126;2022-07-01T02:30:16;98137.50;;;16.38;nan
19108;BME280;9686;48.832;9.126;2022-07-01T02:32:41;98141.72;;;16.44;nan
19108;BME280;9686;48.832;9.126;2022-07-01T02:35:08;98146.22;;;16.40;nan
19108;BME280;9686;48.832;9.126;2022-07-01T02:37:33;98150.63;;;16.38;nan
19108;BME280;9686;48.832;9.126;2022-07-01T02:39:59;98150.84;;;16.32;nan
19108;BME280;9686;48.832;9.126;2022-07-01T02:42:24;98144.53;;;16.38;nan
19108;BME280;9686;48.832;9.126;2022-07-01T02:44:54;98157.81;;;16.33;nan
19108;BME280;9686;48.832;9.126;2022-07-01T02:47:20;98168.34;;;16.33;nan
19108;BME280;9686;48.832;9.126;2022-07-01T02:49:46;98171.94;;;16.30;nan
19108;BME280;9686;48.832;9.126;2022-07-01T02:52:11;98158.91;;;16.26;nan
19108;BME280;9686;48.832;9.126;2022-07-01T02:54:37;98157.16;;;16.26;nan
19108;BME280;9686;48.832;9.126;2022-07-01T02:57:02;98160.81;;;16.21;nan
19108;BME280;9686;48.832;9.126;2022-07-01T02:59:28;98168.66;;;16.22;nan
19108;BME280;9686;48.832;9.126;2022-07-01T03:01:54;98170.66;;;16.14;nan
19108;BME280;9686;48.832;9.126;2022-07-01T03:04:19;98161.91;;;16.14;nan
19108;BME280;9686;48.832;9.126;2022-07-01T03:06:44;98172.50;;;16.11;nan
19108;BME280;9686;48.832;9.126;2022-07-01T03:09:09;98170.72;;;16.11;nan
19108;BME280;9686;48.832;9.126;2022-07-01T03:11:35;98173.31;;;16.14;nan
19108;BME280;9686;48.832;9.126;2022-07-01T03:14:01;98188.22;;;16.12;nan
19108;BME280;9686;48.832;9.126;2022-07-01T03:16:26;98183.97;;;16.08;nan
19108;BME280;9686;48.832;9.126;2022-07-01T03:18:52;98177.13;;;16.02;nan
19108;BME280;9686;48.832;9.126;2022-07-01T03:21:17;98193.72;;;16.04;nan
19108;BME280;9686;48.832;9.126;2022-07-01T03:23:42;98189.53;;;15.97;nan
19108;BME280;9686;48.832;9.126;2022-07-01T03:26:08;98199.16;;;15.98;nan
19108;BME280;9686;48.832;9.126;2022-07-01T03:28:33;98193.81;;;16.01;nan
19108;BME280;9686;48.832;9.126;2022-07-01T03:30:59;98182.47;;;15.99;nan
19108;BME280;9686;48.832;9.126;2022-07-01T03:33:25;98188.69;;;15.97;nan
19108;BME280;9686;48.832;9.126;2022-07-01T03:35:50;98212.31;;;15.98;nan
19108;BME280;9686;48.832;9.126;2022-07-01T03:38:15;98226.31;;;15.99;nan
19108;BME280;9686;48.832;9.126;2022-07-01T03:40:41;98230.63;;;16.01;nan
19108;BME280;9686;48.832;9.126;2022-07-01T03:43:07;98236.84;;;15.99;nan
19108;BME280;9686;48.832;9.126;2022-07-01T03:45:32;98247.34;;;15.99;nan
19108;BME280;9686;48.832;9.126;2022-07-01T03:47:58;98252.47;;;16.03;nan
19108;BME280;9686;48.832;9.126;2022-07-01T03:50:24;98260.97;;;16.13;nan
19108;BME280;9686;48.832;9.126;2022-07-01T03:52:50;98257.28;;;16.20;nan
19108;BME280;9686;48.832;9.126;2022-07-01T03:55:36;98269.31;;;16.29;nan
19108;BME280;9686;48.832;9.126;2022-07-01T03:58:01;98272.88;;;16.26;nan
19108;BME280;9686;48.832;9.126;2022-07-01T04:00:27;98276.47;;;16.24;nan
19108;BME280;9686;48.832;9.126;2022-07-01T04:02:53;98283.63;;;16.19;nan
19108;BME280;9686;48.832;9.126;2022-07-01T04:05:18;98278.50;;;16.14;nan
19108;BME280;9686;48.832;9.126;2022-07-01T04:07:43;98284.63;;;16.13;nan
19108;BME280;9686;48.832;9.126;2022-07-01T04:10:09;98288.16;;;16.12;nan
19108;BME280;9686;48.832;9.126;2022-07-01T04:12:34;98302.03;;;16.19;nan
19108;BME280;9686;48.832;9.126;2022-07-01T04:15:00;98317.59;;;16.26;nan
19108;BME280;9686;48.832;9.126;2022-07-01T04:17:26;98323.69;;;16.28;nan
19108;BME280;9686;48.832;9.126;2022-07-01T04:19:51;98339.56;;;16.25;nan
19108;BME280;9686;48.832;9.126;2022-07-01T04:22:17;98331.72;;;16.24;nan
19108;BME280;9686;48.832;9.126;2022-07-01T04:24:57;98339.56;;;16.25;nan
19108;BME280;9686;48.832;9.126;2022-07-01T04:27:23;98337.19;;;16.16;nan
19108;BME280;9686;48.832;9.126;2022-07-01T04:29:48;98347.75;;;16.15;nan
19108;BME280;9686;48.832;9.126;2022-07-01T04:32:14;98344.13;;;16.19;nan
19108;BME280;9686;48.832;9.126;2022-07-01T04:34:39;98352.16;;;16.13;nan
19108;BME280;9686;48.832;9.126;2022-07-01T04:37:05;98348.63;;;16.15;nan
19108;BME280;9686;48.832;9.126;2022-07-01T04:39:30;98349.44;;;16.17;nan
19108;BME280;9686;48.832;9.126;2022-07-01T04:41:55;98352.03;;;16.19;nan
19108;BME280;9686;48.832;9.126;2022-07-01T04:44:33;98347.66;;;16.18;nan
19108;BME280;9686;48.832;9.126;2022-07-01T04:47:00;98348.66;;;16.12;nan
19108;BME280;9686;48.832;9.126;2022-07-01T04:49:26;98344.34;;;16.10;nan
19108;BME280;9686;48.832;9.126;2022-07-01T04:51:52;98347.75;;;16.13;nan
19108;BME280;9686;48.832;9.126;2022-07-01T04:54:17;98346.97;;;16.10;nan
19108;BME280;9686;48.832;9.126;2022-07-01T04:56:43;98349.34;;;16.20;nan
19108;BME280;9686;48.832;9.126;2022-07-01T04:59:09;98344.22;;;16.16;nan
19108;BME280;9686;48.832;9.126;2022-07-01T05:01:35;98346.16;;;16.08;nan
19108;BME280;9686;48.832;9.126;2022-07-01T05:04:00;98348.13;;;15.99;nan
19108;BME280;9686;48.832;9.126;2022-07-01T05:06:25;98349.06;;;15.97;nan
19108;BME280;9686;48.832;9.126;2022-07-01T05:08:51;98351.72;;;15.97;nan
19108;BME280;9686;48.832;9.126;2022-07-01T05:11:17;98369.16;;;15.99;nan
19108;BME280;9686;48.832;9.126;2022-07-01T05:13:44;98369.16;;;15.99;nan
19108;BME280;9686;48.832;9.126;2022-07-01T05:16:10;98374.53;;;15.95;nan
19108;BME280;9686;48.832;9.126;2022-07-01T05:18:39;98372.88;;;15.92;nan
19108;BME280;9686;48.832;9.126;2022-07-01T05:21:23;98371.22;;;15.88;nan
19108;BME280;9686;48.832;9.126;2022-07-01T05:24:10;98373.16;;;15.80;nan
19108;BME280;9686;48.832;9.126;2022-07-01T05:26:36;98386.25;;;15.82;nan
19108;BME280;9686;48.832;9.126;2022-07-01T05:29:03;98377.50;;;15.81;nan
19108;BME280;9686;48.832;9.126;2022-07-01T05:31:28;98377.50;;;15.81;nan
19108;BME280;9686;48.832;9.126;2022-07-01T05:33:57;98372.44;;;15.73;nan
19108;BME280;9686;48.832;9.126;2022-07-01T05:36:41;98369.69;;;15.78;nan
19108;BME280;9686;48.832;9.126;2022-07-01T05:39:06;98368.94;;;15.73;nan
19108;BME280;9686;48.832;9.126;2022-07-01T05:41:38;98367.03;;;15.80;nan
19108;BME280;9686;48.832;9.126;2022-07-01T05:44:15;98365.88;;;15.91;nan
19108;BME280;9686;48.832;9.126;2022-07-01T05:47:04;98382.78;;;15.80;nan
19108;BME280;9686;48.832;9.126;2022-07-01T05:49:40;98364.41;;;15.80;nan
19108;BME280;9686;48.832;9.126;2022-07-01T05:52:21;98376.34;;;15.93;nan
19108;BME280;9686;48.832;9.126;2022-07-01T05:54:46;98377.19;;;15.95;nan
19108;BME280;9686;48.832;9.126;2022-07-01T05:57:11;98372.88;;;15.92;nan
19108;BME280;9686;48.832;9.126;2022-07-01T05:59:42;98387.00;;;15.87;nan
19108;BME280;9686;48.832;9.126;2022-07-01T06:02:10;98383.38;;;15.92;nan
19108;BME280;9686;48.832;9.126;2022-07-01T06:04:56;98385.88;;;15.97;nan
19108;BME280;9686;48.832;9.126;2022-07-01T06:07:21;98385.03;;;15.96;nan
19108;BME280;9686;48.832;9.126;2022-07-01T06:09:46;98382.44;;;15.95;nan
19108;BME280;9686;48.832;9.126;2022-07-01T06:12:12;98385.09;;;15.93;nan
19108;BME280;9686;48.832;9.126;2022-07-01T06:14:53;98391.19;;;15.95;nan
19108;BME280;9686;48.832;9.126;2022-07-01T06:17:32;98390.44;;;15.90;nan
19108;BME280;9686;48.832;9.126;2022-07-01T06:19:57;98393.00;;;15.93;nan
19108;BME280;9686;48.832;9.126;2022-07-01T06:22:22;98402.75;;;15.88;nan
19108;BME280;9686;48.832;9.126;2022-07-01T06:24:50;98409.72;;;15.91;nan
19108;BME280;9686;48.832;9.126;2022-07-01T06:27:19;98408.03;;;15.87;nan
19108;BME280;9686;48.832;9.126;2022-07-01T06:29:44;98411.47;;;15.90;nan
19108;BME280;9686;48.832;9.126;2022-07-01T06:32:10;98413.16;;;15.93;nan
19108;BME280;9686;48.832;9.126;2022-07-01T06:34:42;98417.44;;;15.97;nan
19108;BME280;9686;48.832;9.126;2022-07-01T06:37:07;98419.38;;;15.90;nan
19108;BME280;9686;48.832;9.126;2022-07-01T06:40:03;98421.94;;;15.92;nan
19108;BME280;9686;48.832;9.126;2022-07-01T06:42:29;98433.25;;;15.95;nan
19108;BME280;9686;48.832;9.126;2022-07-01T06:44:54;98428.00;;;15.95;nan
19108;BME280;9686;48.832;9.126;2022-07-01T06:47:20;98432.94;;;16.08;nan
19108;BME280;9686;48.832;9.126;2022-07-01T06:49:54;98418.78;;;16.13;nan
19108;BME280;9686;48.832;9.126;2022-07-01T06:52:19;98424.03;;;16.13;nan
19108;BME280;9686;48.832;9.126;2022-07-01T06:54:45;98424.94;;;16.12;nan
19108;BME280;9686;48.832;9.126;2022-07-01T06:57:13;98420.44;;;16.17;nan
19108;BME280;9686;48.832;9.126;2022-07-01T06:59:38;98434.56;;;16.15;nan
19108;BME280;9686;48.832;9.126;2022-07-01T07:02:06;98443.31;;;16.15;nan
19108;BME280;9686;48.832;9.126;2022-07-01T07:04:33;98438.94;;;16.14;nan
19108;BME280;9686;48.832;9.126;2022-07-01T07:06:58;98431.09;;;16.11;nan
19108;BME280;9686;48.832;9.126;2022-07-01T07:09:27;98441.56;;;16.14;nan
19108;BME280;9686;48.832;9.126;2022-07-01T07:11:52;98445.06;;;16.15;nan
19108;BME280;9686;48.832;9.126;2022-07-01T07:14:18;98453.88;;;16.14;nan
19108;BME280;9686;48.832;9.126;2022-07-01T07:16:43;98455.22;;;16.28;nan
19108;BME280;9686;48.832;9.126;2022-07-01T07:19:31;98460.44;;;16.30;nan
19108;BME280;9686;48.832;9.126;2022-07-01T07:22:00;98476.00;;;16.39;nan
19108;BME280;9686;48.832;9.126;2022-07-01T07:24:25;98461.81;;;16.46;nan
19108;BME280;9686;48.832;9.126;2022-07-01T07:26:56;98447.88;;;16.43;nan
19108;BME280;9686;48.832;9.126;2022-07-01T07:29:23;98450.22;;;16.53;nan
19108;BME280;9686;48.832;9.126;2022-07-01T07:31:51;98462.50;;;16.53;nan
19108;BME280;9686;48.832;9.126;2022-07-01T07:34:17;98469.53;;;16.52;nan
19108;BME280;9686;48.832;9.126;2022-07-01T07:36:42;98469.88;;;16.39;nan
19108;BME280;9686;48.832;9.126;2022-07-01T07:39:07;98469.13;;;16.33;nan
19108;BME280;9686;48.832;9.126;2022-07-01T07:41:32;98477.75;;;16.40;nan
19108;BME280;9686;48.832;9.126;2022-07-01T07:43:58;98467.78;;;16.53;nan
19108;BME280;9686;48.832;9.126;2022-07-01T07:46:23;98464.31;;;16.51;nan
19108;BME280;9686;48.832;9.126;2022-07-01T07:48:48;98450.34;;;16.49;nan
19108;BME280;9686;48.832;9.126;2022-07-01T07:51:14;98436.97;;;16.56;nan
19108;BME280;9686;48.832;9.126;2022-07-01T07:53:40;98444.13;;;16.51;nan
19108;BME280;9686;48.832;9.126;2022-07-01T07:56:06;98445.16;;;16.46;nan
19108;BME280;9686;48.832;9.126;2022-07-01T07:58:31;98458.03;;;16.56;nan
19108;BME280;9686;48.832;9.126;2022-07-01T08:00:56;98448.16;;;16.64;nan
19108;BME280;9686;48.832;9.126;2022-07-01T08:03:22;98451.66;;;16.67;nan
19108;BME280;9686;48.832;9.126;2022-07-01T08:05:47;98453.00;;;16.47;nan
19108;BME280;9686;48.832;9.126;2022-07-01T08:08:12;98457.41;;;16.47;nan
19108;BME280;9686;48.832;9.126;2022-07-01T08:10:38;98474.88;;;16.49;nan
19108;BME280;9686;48.832;9.126;2022-07-01T08:13:03;98474.63;;;16.58;nan
19108;BME280;9686;48.832;9.126;2022-07-01T08:15:30;98470.28;;;16.57;nan
19108;BME280;9686;48.832;9.126;2022-07-01T08:17:56;98479.72;;;16.68;nan
19108;BME280;9686;48.832;9.126;2022-07-01T08:20:21;98482.34;;;16.68;nan
19108;BME280;9686;48.832;9.126;2022-07-01T08:22:47;98478.06;;;16.62;nan
19108;BME280;9686;48.832;9.126;2022-07-01T08:25:13;98488.81;;;16.53;nan
19108;BME280;9686;48.832;9.126;2022-07-01T08:27:38;98490.69;;;16.49;nan
19108;BME280;9686;48.832;9.126;2022-07-01T08:30:05;98494.09;;;16.53;nan
19108;BME280;9686;48.832;9.126;2022-07-01T08:32:31;98497.28;;;16.64;nan
19108;BME280;9686;48.832;9.126;2022-07-01T08:34:56;98501.56;;;16.71;nan
19108;BME280;9686;48.832;9.126;2022-07-01T08:37:22;98498.06;;;16.71;nan
19108;BME280;9686;48.832;9.126;2022-07-01T08:39:47;98497.84;;;16.78;nan
19108;BME280;9686;48.832;9.126;2022-07-01T08:42:12;98494.53;;;16.72;nan
19108;BME280;9686;48.832;9.126;2022-07-01T08:44:38;98502.53;;;16.67;nan
19108;BME280;9686;48.832;9.126;2022-07-01T08:47:03;98513.03;;;16.69;nan
19108;BME280;9686;48.832;9.126;2022-07-01T08:49:30;98522.69;;;16.68;nan
19108;BME280;9686;48.832;9.126;2022-07-01T08:51:56;98525.44;;;16.62;nan
19108;BME280;9686;48.832;9.126;2022-07-01T08:54:21;98534.78;;;16.40;nan
19108;BME280;9686;48.832;9.126;2022-07-01T08:56:47;98520.78;;;16.38;nan
19108;BME280;9686;48.832;9.126;2022-07-01T08:59:21;98531.25;;;16.41;nan
19108;BME280;9686;48.832;9.126;2022-07-01T09:01:57;98534.78;;;16.38;nan
19108;BME280;9686;48.832;9.126;2022-07-01T09:04:23;98529.47;;;16.41;nan
19108;BME280;9686;48.832;9.126;2022-07-01T09:06:49;98533.53;;;16.54;nan
19108;BME280;9686;48.832;9.126;2022-07-01T09:09:17;98523.50;;;16.33;nan
19108;BME280;9686;48.832;9.126;2022-07-01T09:11:50;98526.00;;;16.41;nan
19108;BME280;9686;48.832;9.126;2022-07-01T09:14:20;98536.28;;;16.50;nan
19108;BME280;9686;48.832;9.126;2022-07-01T09:16:53;98525.22;;;16.35;nan
19108;BME280;9686;48.832;9.126;2022-07-01T09:19:21;98526.97;;;16.35;nan
19108;BME280;9686;48.832;9.126;2022-07-01T09:21:51;98509.28;;;16.42;nan
19108;BME280;9686;48.832;9.126;2022-07-01T09:29:28;98509.84;;;16.19;nan
19108;BME280;9686;48.832;9.126;2022-07-01T09:31:53;98534.22;;;16.25;nan
19108;BME280;9686;48.832;9.126;2022-07-01T09:34:19;98544.63;;;16.30;nan
19108;BME280;9686;48.832;9.126;2022-07-01T09:36:55;98540.91;;;16.39;nan
19108;BME280;9686;48.832;9.126;2022-07-01T09:39:22;98545.31;;;16.40;nan
19108;BME280;9686;48.832;9.126;2022-07-01T09:41:53;98535.69;;;16.37;nan
19108;BME280;9686;48.832;9.126;2022-07-01T09:44:19;98543.03;;;16.24;nan
19108;BME280;9686;48.832;9.126;2022-07-01T09:46:55;98531.00;;;16.13;nan
19108;BME280;9686;48.832;9.126;2022-07-01T09:49:23;98531.59;;;16.25;nan
19108;BME280;9686;48.832;9.126;2022-07-01T09:51:52;98525.31;;;16.31;nan
19108;BME280;9686;48.832;9.126;2022-07-01T09:54:18;98534.13;;;16.30;nan
19108;BME280;9686;48.832;9.126;2022-07-01T09:56:43;98527.75;;;16.39;nan
19108;BME280;9686;48.832;9.126;2022-07-01T09:59:09;98516.59;;;16.29;nan
19108;BME280;9686;48.832;9.126;2022-07-01T10:01:43;98525.28;;;16.32;nan
19108;BME280;9686;48.832;9.126;2022-07-01T10:04:09;98532.00;;;16.46;nan
19108;BME280;9686;48.832;9.126;2022-07-01T10:06:41;98541.34;;;16.57;nan
19108;BME280;9686;48.832;9.126;2022-07-01T10:14:30;98545.34;;;17.08;nan
19108;BME280;9686;48.832;9.126;2022-07-01T10:16:56;98543.25;;;17.20;nan
19108;BME280;9686;48.832;9.126;2022-07-01T10:19:26;98536.69;;;17.35;nan
19108;BME280;9686;48.832;9.126;2022-07-01T10:21:52;98541.72;;;17.44;nan
19108;BME280;9686;48.832;9.126;2022-07-01T10:24:22;98538.13;;;17.47;nan
19108;BME280;9686;48.832;9.126;2022-07-01T10:26:51;98534.97;;;17.64;nan
19108;BME280;9686;48.832;9.126;2022-07-01T10:29:33;98532.84;;;17.78;nan
19108;BME280;9686;48.832;9.126;2022-07-01T10:32:01;98531.75;;;17.54;nan
19108;BME280;9686;48.832;9.126;2022-07-01T10:34:40;98540.50;;;17.56;nan
19108;BME280;9686;48.832;9.126;2022-07-01T10:37:10;98533.44;;;17.56;nan
19108;BME280;9686;48.832;9.126;2022-07-01T10:42:20;98560.81;;;17.83;nan
19108;BME280;9686;48.832;9.126;2022-07-01T10:45:09;98559.03;;;17.84;nan
19108;BME280;9686;48.832;9.126;2022-07-01T10:47:36;98546.91;;;17.78;nan
19108;BME280;9686;48.832;9.126;2022-07-01T10:50:12;98558.59;;;17.99;nan
19108;BME280;9686;48.832;9.126;2022-07-01T10:52:40;98564.72;;;18.00;nan
19108;BME280;9686;48.832;9.126;2022-07-01T10:55:38;98568.00;;;18.08;nan
19108;BME280;9686;48.832;9.126;2022-07-01T10:58:04;98568.22;;;18.00;nan
19108;BME280;9686;48.832;9.126;2022-07-01T11:00:31;98569.66;;;18.10;nan
19108;BME280;9686;48.832;9.126;2022-07-01T11:03:33;98568.03;;;18.06;nan
19108;BME280;9686;48.832;9.126;2022-07-01T11:05:59;98574.81;;;18.15;nan
19108;BME280;9686;48.832;9.126;2022-07-01T11:08:24;98569.78;;;18.35;nan
19108;BME280;9686;48.832;9.126;2022-07-01T11:10:53;98565.00;;;18.46;nan
19108;BME280;9686;48.832;9.126;2022-07-01T11:13:19;98559.78;;;18.45;nan
19108;BME280;9686;48.832;9.126;2022-07-01T11:15:46;98560.09;;;18.36;nan
19108;BME280;9686;48.832;9.126;2022-07-01T11:18:14;98559.94;;;18.40;nan
19108;BME280;9686;48.832;9.126;2022-07-01T11:20:39;98562.81;;;18.33;nan
19108;BME280;9686;48.832;9.126;2022-07-01T11:23:05;98558.06;;;18.44;nan
19108;BME280;9686;48.832;9.126;2022-07-01T11:25:31;98556.44;;;18.40;nan
19108;BME280;9686;48.832;9.126;2022-07-01T11:27:57;98552.44;;;18.55;nan
19108;BME280;9686;48.832;9.126;2022-07-01T11:30:22;98550.00;;;18.76;nan
19108;BME280;9686;48.832;9.126;2022-07-01T11:32:53;98545.16;;;18.63;nan
19108;BME280;9686;48.832;9.126;2022-07-01T11:35:25;98547.78;;;18.89;nan
19108;BME280;9686;48.832;9.126;2022-07-01T11:38:12;98548.50;;;18.94;nan
19108;BME280;9686;48.832;9.126;2022-07-01T11:40:58;98541.91;;;18.81;nan
19108;BME280;9686;48.832;9.126;2022-07-01T11:43:28;98539.28;;;19.06;nan
19108;BME280;9686;48.832;9.126;2022-07-01T11:45:54;98543.53;;;19.10;nan
19108;BME280;9686;48.832;9.126;2022-07-01T11:48:33;98547.63;;;19.19;nan
19108;BME280;9686;48.832;9.126;2022-07-01T11:51:00;98548.09;;;19.31;nan
19108;BME280;9686;48.832;9.126;2022-07-01T11:53:26;98551.41;;;19.36;nan
19108;BME280;9686;48.832;9.126;2022-07-01T11:55:52;98546.59;;;19.23;nan
19108;BME280;9686;48.832;9.126;2022-07-01T11:58:17;98554.94;;;19.12;nan
19108;BME280;9686;48.832;9.126;2022-07-01T12:00:43;98549.16;;;19.01;nan
19108;BME280;9686;48.832;9.126;2022-07-01T12:03:08;98555.34;;;18.73;nan
19108;BME280;9686;48.832;9.126;2022-07-01T12:05:35;98564.63;;;18.59;nan
19108;BME280;9686;48.832;9.126;2022-07-01T12:08:01;98558.78;;;18.49;nan
19108;BME280;9686;48.832;9.126;2022-07-01T12:10:27;98560.38;;;18.55;nan
19108;BME280;9686;48.832;9.126;2022-07-01T12:12:53;98556.91;;;18.53;nan
19108;BME280;9686;48.832;9.126;2022-07-01T12:15:20;98561.06;;;18.88;nan
19108;BME280;9686;48.832;9.126;2022-07-01T12:17:45;98555.03;;;19.09;nan
19108;BME280;9686;48.832;9.126;2022-07-01T12:20:11;98554.41;;;19.27;nan
19108;BME280;9686;48.832;9.126;2022-07-01T12:22:37;98541.88;;;19.32;nan
19108;BME280;9686;48.832;9.126;2022-07-01T12:25:10;98539.81;;;19.40;nan
19108;BME280;9686;48.832;9.126;2022-07-01T12:27:37;98544.75;;;19.50;nan
19108;BME280;9686;48.832;9.126;2022-07-01T12:30:05;98547.84;;;19.62;nan
19108;BME280;9686;48.832;9.126;2022-07-01T12:32:35;98546.31;;;19.80;nan
19108;BME280;9686;48.832;9.126;2022-07-01T12:35:02;98544.41;;;19.84;nan
19108;BME280;9686;48.832;9.126;2022-07-01T12:37:36;98548.28;;;19.97;nan
19108;BME280;9686;48.832;9.126;2022-07-01T12:40:05;98543.00;;;19.97;nan
19108;BME280;9686;48.832;9.126;2022-07-01T12:42:37;98531.78;;;20.14;nan
19108;BME280;9686;48.832;9.126;2022-07-01T12:45:16;98537.47;;;20.03;nan
19108;BME280;9686;48.832;9.126;2022-07-01T12:47:45;98537.78;;;19.95;nan
19108;BME280;9686;48.832;9.126;2022-07-01T12:50:27;98534.94;;;20.00;nan
19108;BME280;9686;48.832;9.126;2022-07-01T12:55:33;98541.72;;;19.85;nan
19108;BME280;9686;48.832;9.126;2022-07-01T12:57:59;98544.28;;;19.87;nan
19108;BME280;9686;48.832;9.126;2022-07-01T13:00:26;98538.38;;;19.80;nan
19108;BME280;9686;48.832;9.126;2022-07-01T13:02:54;98535.38;;;19.89;nan
19108;BME280;9686;48.832;9.126;2022-07-01T13:05:20;98540.53;;;19.92;nan
19108;BME280;9686;48.832;9.126;2022-07-01T13:07:45;98528.91;;;19.96;nan
19108;BME280;9686;48.832;9.126;2022-07-01T13:10:11;98523.63;;;20.18;nan
19108;BME280;9686;48.832;9.126;2022-07-01T13:12:36;98527.41;;;20.35;nan
19108;BME280;9686;48.832;9.126;2022-07-01T13:15:02;98527.72;;;20.49;nan
19108;BME280;9686;48.832;9.126;2022-07-01T13:17:27;98525.81;;;20.30;nan
19108;BME280;9686;48.832;9.126;2022-07-01T13:19:53;98525.09;;;20.49;nan
19108;BME280;9686;48.832;9.126;2022-07-01T13:22:19;98530.94;;;20.57;nan
19108;BME280;9686;48.832;9.126;2022-07-01T13:24:45;98530.97;;;20.55;nan
19108;BME280;9686;48.832;9.126;2022-07-01T13:27:10;98538.38;;;20.69;nan
19108;BME280;9686;48.832;9.126;2022-07-01T13:29:36;98529.69;;;20.66;nan
19108;BME280;9686;48.832;9.126;2022-07-01T13:32:02;98537.50;;;20.69;nan
19108;BME280;9686;48.832;9.126;2022-07-01T13:34:27;98542.09;;;20.65;nan
19108;BME280;9686;48.832;9.126;2022-07-01T13:36:53;98534.25;;;20.62;nan
19108;BME280;9686;48.832;9.126;2022-07-01T13:39:18;98541.16;;;20.66;nan
19108;BME280;9686;48.832;9.126;2022-07-01T13:41:43;98542.63;;;20.73;nan
19108;BME280;9686;48.832;9.126;2022-07-01T13:44:09;98551.56;;;20.71;nan
19108;BME280;9686;48.832;9.126;2022-07-01T13:46:34;98550.94;;;20.86;nan
19108;BME280;9686;48.832;9.126;2022-07-01T13:49:00;98555.84;;;20.95;nan
19108;BME280;9686;48.832;9.126;2022-07-01T13:51:26;98546.63;;;21.04;nan